PWSweather.com
Personal Weather Stations
Station Observations
PWSLORIS
The Farm At Fox Bay, Loris, SC 29569

The Farm At Fox BayLoris, SC 29569

Lat: 34.067097, Lon: -78.86907

Elevation: 108

Station Type: Davis Vantage Pro2 with 24 hr. FARS and solar

http://www.lorisweather.com

Latest ConditionsUpdated 10:00:01 AM EST Thursday, Nov 14, 2019
Currently Today's Max Today's Min Today's Average
Temperature 47.0°F8.3°C 47.0°F8.3°C 31.6°F-0.2°C 35.3°F1.8°C
Dew Point 36.2°F2.3°C 36.2°F2.3°C 21.8°F-5.7°C 26.2°F-3.2°C
Winds 4.6 mph E7.4 kmh E 5.8 mph -9.3 kmh - - 2.9 mph 4.7 kmh
Wind Gusts 9.2 mph14.8 kmh 10.4 mph16.7 kmh - -
Humidity 66% 72% 64% 69%
Pressure 30.35 in1027.8 mb 30.39 in1029.1 mb 30.33 in1027.1 mb -
Hour Temp Dew Point Humidity Winds Wind Gusts Pressure Precip Precip Rate Daily Precip Total
10:00 AM 47.0°F8.3°C 36.2°F2.3°C 66% 4.6 mph E7.4 kmh E 9.2 mph14.8 kmh 30.35 in1027.8 mb - 0.00 in0.0 mm 0.00 in0.0 mm
09:45 AM 45.7°F7.6°C 35.0°F1.7°C 66% 5.8 mph ENE9.3 kmh ENE 8.1 mph13.0 kmh 30.36 in1028.1 mb - 0.00 in0.0 mm 0.00 in0.0 mm
09:30 AM 45.0°F7.2°C 34.7°F1.5°C 67% 3.5 mph NE5.6 kmh NE 10.4 mph16.7 kmh 30.36 in1028.1 mb - 0.00 in0.0 mm 0.00 in0.0 mm
09:15 AM 43.2°F6.2°C 32.9°F0.5°C 67% 3.5 mph NE5.6 kmh NE 4.6 mph7.4 kmh 30.36 in1028.1 mb - 0.00 in0.0 mm 0.00 in0.0 mm
09:00 AM 42.2°F5.7°C 32.4°F0.2°C 68% 3.5 mph NE5.6 kmh NE 4.6 mph7.4 kmh 30.35 in1027.8 mb - 0.00 in0.0 mm 0.00 in0.0 mm
08:45 AM 41.0°F5.0°C 31.2°F-0.4°C 68% 2.3 mph ENE3.7 kmh ENE 3.5 mph5.6 kmh 30.36 in1028.1 mb - 0.00 in0.0 mm 0.00 in0.0 mm
08:30 AM 39.8°F4.3°C 30.5°F-0.8°C 69% 4.6 mph NE7.4 kmh NE 8.1 mph13.0 kmh 30.36 in1028.1 mb - 0.00 in0.0 mm 0.00 in0.0 mm
08:15 AM 38.7°F3.7°C 29.7°F-1.3°C 70% 4.6 mph NE7.4 kmh NE 5.8 mph9.3 kmh 30.35 in1027.8 mb - 0.00 in0.0 mm 0.00 in0.0 mm
08:00 AM 37.7°F3.2°C 29.2°F-1.6°C 71% 4.6 mph NE7.4 kmh NE 10.4 mph16.7 kmh 30.36 in1028.1 mb - 0.00 in0.0 mm 0.00 in0.0 mm
07:45 AM 36.5°F2.5°C 28.3°F-2.1°C 72% 4.6 mph NE7.4 kmh NE 3.5 mph5.6 kmh 30.35 in1027.8 mb - 0.00 in0.0 mm 0.00 in0.0 mm
07:30 AM 36.0°F2.2°C 27.5°F-2.5°C 71% 5.8 mph NE9.3 kmh NE 6.9 mph11.1 kmh 30.35 in1027.8 mb - 0.00 in0.0 mm 0.00 in0.0 mm
07:15 AM 35.8°F2.1°C 27.3°F-2.6°C 71% 4.6 mph ENE7.4 kmh ENE 9.2 mph14.8 kmh 30.35 in1027.8 mb - 0.00 in0.0 mm 0.00 in0.0 mm
07:00 AM 36.3°F2.4°C 27.5°F-2.5°C 70% 4.6 mph NNE7.4 kmh NNE 6.9 mph11.1 kmh 30.35 in1027.8 mb - 0.00 in0.0 mm 0.00 in0.0 mm
06:45 AM 36.6°F2.6°C 28.1°F-2.2°C 71% 3.5 mph N5.6 kmh N 5.8 mph9.3 kmh 30.35 in1027.8 mb - 0.00 in0.0 mm 0.00 in0.0 mm
06:30 AM 36.3°F2.4°C 27.4°F-2.6°C 70% 5.8 mph NE9.3 kmh NE 6.9 mph11.1 kmh 30.35 in1027.8 mb - 0.00 in0.0 mm 0.00 in0.0 mm
06:15 AM 36.0°F2.2°C 27.5°F-2.5°C 71% 3.5 mph NNE5.6 kmh NNE 6.9 mph11.1 kmh 30.34 in1027.4 mb - 0.00 in0.0 mm 0.00 in0.0 mm
06:00 AM 35.3°F1.8°C 26.8°F-2.9°C 71% 2.3 mph ENE3.7 kmh ENE 6.9 mph11.1 kmh 30.34 in1027.4 mb - 0.00 in0.0 mm 0.00 in0.0 mm
05:45 AM 34.5°F1.4°C 26.0°F-3.3°C 71% 2.3 mph NE3.7 kmh NE 4.6 mph7.4 kmh 30.35 in1027.8 mb - 0.00 in0.0 mm 0.00 in0.0 mm
05:30 AM 33.9°F1.1°C 25.5°F-3.6°C 71% 3.5 mph N5.6 kmh N 3.5 mph5.6 kmh 30.35 in1027.8 mb - 0.00 in0.0 mm 0.00 in0.0 mm
05:15 AM 33.3°F0.7°C 24.9°F-3.9°C 71% 1.2 mph N1.9 kmh N 3.5 mph5.6 kmh 30.35 in1027.8 mb - 0.00 in0.0 mm 0.00 in0.0 mm
05:00 AM 32.9°F0.5°C 24.5°F-4.2°C 71% 2.3 mph N3.7 kmh N 4.6 mph7.4 kmh 30.34 in1027.4 mb - 0.00 in0.0 mm 0.00 in0.0 mm
04:45 AM 32.9°F0.5°C 24.1°F-4.4°C 70% 2.3 mph N3.7 kmh N 3.5 mph5.6 kmh 30.34 in1027.4 mb - 0.00 in0.0 mm 0.00 in0.0 mm
04:30 AM 33.1°F0.6°C 24.7°F-4.1°C 71% 1.2 mph NNE1.9 kmh NNE 3.5 mph5.6 kmh 30.34 in1027.4 mb - 0.00 in0.0 mm 0.00 in0.0 mm
04:15 AM 32.7°F0.4°C 24.3°F-4.3°C 71% 1.2 mph N1.9 kmh N 2.3 mph3.7 kmh 30.33 in1027.1 mb - 0.00 in0.0 mm 0.00 in0.0 mm
04:00 AM 32.1°F0.1°C 24.0°F-4.4°C 72% 3.5 mph NE5.6 kmh NE 3.5 mph5.6 kmh 30.33 in1027.1 mb - 0.00 in0.0 mm 0.00 in0.0 mm
03:45 AM 31.7°F-0.2°C 23.7°F-4.6°C 72% 4.6 mph NE7.4 kmh NE 6.9 mph11.1 kmh 30.33 in1027.1 mb - 0.00 in0.0 mm 0.00 in0.0 mm
03:30 AM 31.7°F-0.2°C 23.7°F-4.6°C 72% 2.3 mph NE3.7 kmh NE 3.5 mph5.6 kmh 30.34 in1027.4 mb - 0.00 in0.0 mm 0.00 in0.0 mm
03:15 AM 31.7°F-0.2°C 23.7°F-4.6°C 72% 2.3 mph NNE3.7 kmh NNE 3.5 mph5.6 kmh 30.34 in1027.4 mb - 0.00 in0.0 mm 0.00 in0.0 mm
03:00 AM 31.7°F-0.2°C 23.4°F-4.8°C 71% 2.3 mph NNE3.7 kmh NNE 3.5 mph5.6 kmh 30.35 in1027.8 mb - 0.00 in0.0 mm 0.00 in0.0 mm
02:45 AM 31.7°F-0.2°C 23.4°F-4.8°C 71% 2.3 mph NE3.7 kmh NE 3.5 mph5.6 kmh 30.35 in1027.8 mb - 0.00 in0.0 mm 0.00 in0.0 mm
02:30 AM 31.6°F-0.2°C 23.0°F-5.0°C 70% 1.2 mph NE1.9 kmh NE 2.3 mph3.7 kmh 30.35 in1027.8 mb - 0.00 in0.0 mm 0.00 in0.0 mm
02:15 AM 31.6°F-0.2°C 22.9°F-5.1°C 70% 1.2 mph NNE1.9 kmh NNE 5.8 mph9.3 kmh 30.35 in1027.8 mb - 0.00 in0.0 mm 0.00 in0.0 mm
02:00 AM 31.6°F-0.2°C 22.6°F-5.2°C 69% 2.3 mph NNE3.7 kmh NNE 4.6 mph7.4 kmh 30.36 in1028.1 mb - 0.00 in0.0 mm 0.00 in0.0 mm
01:45 AM 31.7°F-0.2°C 23.0°F-5.0°C 70% 1.2 mph NE1.9 kmh NE 2.3 mph3.7 kmh 30.36 in1028.1 mb - 0.00 in0.0 mm 0.00 in0.0 mm
01:30 AM 32.1°F0.1°C 22.7°F-5.2°C 68% 1.2 mph NE1.9 kmh NE 1.2 mph1.9 kmh 30.37 in1028.4 mb - 0.00 in0.0 mm 0.00 in0.0 mm
01:15 AM 32.3°F0.2°C 22.6°F-5.2°C 67% 1.2 mph NE1.9 kmh NE 1.2 mph1.9 kmh 30.37 in1028.4 mb - 0.00 in0.0 mm 0.00 in0.0 mm
01:00 AM 32.5°F0.3°C 22.8°F-5.1°C 67% 1.2 mph NE1.9 kmh NE 3.5 mph5.6 kmh 30.36 in1028.1 mb - 0.00 in0.0 mm 0.00 in0.0 mm
12:45 AM 32.6°F0.3°C 22.1°F-5.5°C 65% Calm Calm 3.5 mph5.6 kmh 30.37 in1028.4 mb - 0.00 in0.0 mm 0.00 in0.0 mm
12:30 AM 32.6°F0.3°C 22.2°F-5.4°C 65% 1.2 mph NNE1.9 kmh NNE 1.2 mph1.9 kmh 30.37 in1028.4 mb - 0.00 in0.0 mm 0.00 in0.0 mm
12:15 AM 32.6°F0.3°C 21.8°F-5.7°C 64% 1.2 mph N1.9 kmh N 3.5 mph5.6 kmh 30.38 in1028.8 mb - 0.00 in0.0 mm 0.00 in0.0 mm
12:00 AM 32.8°F0.4°C 22.0°F-5.6°C 64% 2.3 mph N3.7 kmh N 3.5 mph5.6 kmh 30.39 in1029.1 mb - 0.00 in0.0 mm 0.00 in0.0 mm